Time;durP1;ratioP1;P1;durP2;ratioP2;P2;SDS_P1;SDS_P2;PMS_P1;PMS_P2;Temp;Humidity;BMP_temperature;BMP_pressure;BME280_temperature;BME280_humidity;BME280_pressure;Samples;Min_cycle;Max_cycle;Signal;HPM_P1;HPM_P2
2021/12/01 00:07:34;;;;;;;;;;;;;;;20.76;53.14;99256.16;20525642;28;101863;-63
2021/12/01 00:17:35;;;;;;;;;;;;;;;20.71;53.00;99267.06;20534866;28;101404;-62
2021/12/01 00:27:36;;;;;;;;;;;;;;;20.70;53.11;99264.59;20505043;28;101067;-62
2021/12/01 00:37:37;;;;;;;;;;;;;;;20.69;52.65;99276.06;20462775;28;99922;-63
2021/12/01 00:47:52;;;;;;;;;;;;;;;20.67;53.02;99280.69;20451987;28;101208;-62
2021/12/01 00:57:55;;;;;;;;;;;;;;;20.63;52.76;99295.91;20482882;28;102382;-62
2021/12/01 01:07:55;;;;;;;;;;;;;;;20.62;53.06;99304.78;20527096;28;99456;-62
2021/12/01 01:18:05;;;;;;;;;;;;;;;20.58;52.98;99313.88;20482469;28;101181;-62
2021/12/01 01:28:05;;;;;;;;;;;;;;;20.56;52.54;99321.13;20525328;28;102104;-62
2021/12/01 01:38:06;;;;;;;;;;;;;;;20.54;52.70;99323.88;20443842;28;101582;-62
2021/12/01 01:48:14;;;;;;;;;;;;;;;20.53;52.09;99326.63;20440752;28;101289;-62
2021/12/01 01:58:14;;;;;;;;;;;;;;;20.52;52.80;99332.88;20509824;28;99101;-62
2021/12/01 02:08:20;;;;;;;;;;;;;;;20.47;52.14;99336.75;20521289;28;99443;-62
2021/12/01 02:18:22;;;;;;;;;;;;;;;20.48;52.68;99329.69;20489707;27;101786;-62
2021/12/01 02:28:22;;;;;;;;;;;;;;;20.44;52.27;99337.03;20527691;28;98236;-62
2021/12/01 02:38:23;;;;;;;;;;;;;;;20.42;52.71;99333.72;20467338;28;97997;-63
2021/12/01 02:48:24;;;;;;;;;;;;;;;20.39;52.39;99327.91;20521587;28;100403;-62
2021/12/01 02:58:30;;;;;;;;;;;;;;;20.39;52.69;99317.41;20519628;28;100747;-62
2021/12/01 03:08:30;;;;;;;;;;;;;;;20.35;52.50;99322.09;20495936;28;101593;-62
2021/12/01 03:18:32;;;;;;;;;;;;;;;20.35;52.69;99350.16;20528607;28;98203;-62
2021/12/01 03:28:33;;;;;;;;;;;;;;;20.32;52.42;99359.16;20520370;28;101111;-62
2021/12/01 03:38:33;;;;;;;;;;;;;;;20.33;52.20;99362.66;20508643;28;102727;-62
2021/12/01 03:48:34;;;;;;;;;;;;;;;20.32;52.67;99367.06;20498431;28;97858;-62
2021/12/01 03:58:34;;;;;;;;;;;;;;;20.28;52.36;99363.06;20536371;28;99738;-62
2021/12/01 04:08:36;;;;;;;;;;;;;;;20.27;52.40;99370.09;20527461;28;101896;-62
2021/12/01 04:18:43;;;;;;;;;;;;;;;20.27;52.42;99395.56;20547411;28;99492;-62
2021/12/01 04:28:43;;;;;;;;;;;;;;;20.24;52.30;99393.22;20479258;28;99566;-62
2021/12/01 04:38:44;;;;;;;;;;;;;;;20.24;52.40;99407.19;20449418;28;99776;-63
2021/12/01 04:48:45;;;;;;;;;;;;;;;20.22;52.35;99417.00;20460940;28;100093;-62
2021/12/01 04:58:45;;;;;;;;;;;;;;;20.22;52.54;99410.91;20445360;28;99593;-61
2021/12/01 05:08:47;;;;;;;;;;;;;;;20.20;52.46;99423.34;20463572;28;102530;-62
2021/12/01 05:18:48;;;;;;;;;;;;;;;20.28;52.29;99432.22;20466616;28;99132;-63
2021/12/01 05:28:50;;;;;;;;;;;;;;;20.53;52.96;99476.53;20466231;28;100809;-62
2021/12/01 05:38:50;;;;;;;;;;;;;;;20.77;52.83;99516.47;20438930;28;99077;-64
2021/12/01 05:48:51;;;;;;;;;;;;;;;20.95;52.38;99526.31;20431227;28;99935;-57
2021/12/01 05:58:52;;;;;;;;;;;;;;;20.98;51.13;99538.38;20438193;28;99696;-57
2021/12/01 06:08:55;;;;;;;;;;;;;;;21.04;51.48;99545.72;20435394;28;99187;-59
2021/12/01 06:18:56;;;;;;;;;;;;;;;21.10;51.02;99563.56;20460317;28;98289;-57
2021/12/01 06:28:56;;;;;;;;;;;;;;;21.11;49.76;99594.19;20466454;28;106945;-60
2021/12/01 06:38:59;;;;;;;;;;;;;;;21.27;50.67;99605.00;20461479;28;100124;-61
2021/12/01 06:48:59;;;;;;;;;;;;;;;21.38;50.04;99619.84;20476650;28;98829;-59
2021/12/01 06:58:59;;;;;;;;;;;;;;;21.43;50.10;99617.63;20471990;28;97395;-60
2021/12/01 07:09:01;;;;;;;;;;;;;;;21.47;50.10;99622.63;20469890;28;98166;-59
2021/12/01 07:19:02;;;;;;;;;;;;;;;21.50;49.85;99617.91;20462099;28;97400;-59
2021/12/01 07:29:02;;;;;;;;;;;;;;;21.53;49.92;99608.88;20467531;28;102641;-60
2021/12/01 07:39:03;;;;;;;;;;;;;;;21.53;49.41;99577.28;20479832;28;99360;-60
2021/12/01 07:49:04;;;;;;;;;;;;;;;21.56;49.50;99582.28;20472329;28;101314;-59
2021/12/01 07:59:04;;;;;;;;;;;;;;;21.55;49.14;99599.03;20479644;28;97601;-61
2021/12/01 08:09:06;;;;;;;;;;;;;;;21.56;49.00;99605.97;20514149;28;98046;-60
2021/12/01 08:19:07;;;;;;;;;;;;;;;21.56;48.63;99596.28;20554892;28;101371;-61
2021/12/01 08:29:08;;;;;;;;;;;;;;;21.63;48.83;99569.38;20549563;28;99699;-60
2021/12/01 08:39:08;;;;;;;;;;;;;;;21.64;48.73;99565.78;20560527;28;97924;-59
2021/12/01 08:49:10;;;;;;;;;;;;;;;21.70;48.91;99579.22;20564235;28;99319;-59
2021/12/01 08:59:10;;;;;;;;;;;;;;;21.67;48.75;99586.59;20533016;28;99903;-59
2021/12/01 09:09:17;;;;;;;;;;;;;;;21.64;48.71;99586.84;20544448;28;98274;-60
2021/12/01 09:19:19;;;;;;;;;;;;;;;21.65;48.28;99568.25;20493327;28;100152;-59
2021/12/01 09:29:20;;;;;;;;;;;;;;;21.61;48.66;99571.34;20476948;28;97756;-60
2021/12/01 09:39:21;;;;;;;;;;;;;;;21.60;48.32;99552.06;20515755;28;98365;-59
2021/12/01 09:49:21;;;;;;;;;;;;;;;21.60;48.34;99536.25;20536502;28;101674;-60
2021/12/01 09:59:22;;;;;;;;;;;;;;;21.61;48.13;99522.13;20553768;28;101309;-60
2021/12/01 10:09:22;;;;;;;;;;;;;;;21.68;48.03;99514.44;20536509;28;102162;-59
2021/12/01 10:19:28;;;;;;;;;;;;;;;21.63;47.84;99496.47;20459905;28;99993;-58
2021/12/01 10:29:31;;;;;;;;;;;;;;;21.59;48.10;99503.81;20464534;28;97358;-60
2021/12/01 10:39:32;;;;;;;;;;;;;;;21.57;48.32;99510.22;20440595;28;105284;-59
2021/12/01 10:49:40;;;;;;;;;;;;;;;21.51;48.03;99503.66;20469832;28;100572;-59
2021/12/01 10:59:44;;;;;;;;;;;;;;;21.49;48.28;99491.63;20525423;28;98968;-59
2021/12/01 11:09:46;;;;;;;;;;;;;;;21.44;48.07;99479.69;20494489;28;101050;-59
2021/12/01 11:19:47;;;;;;;;;;;;;;;21.43;47.86;99464.03;20457506;28;102131;-59
2021/12/01 11:29:47;;;;;;;;;;;;;;;21.47;47.83;99446.16;20466215;28;98168;-59
2021/12/01 11:39:49;;;;;;;;;;;;;;;21.55;48.09;99422.56;20462998;28;97555;-59
2021/12/01 11:49:51;;;;;;;;;;;;;;;21.57;47.97;99389.84;20473109;28;97433;-59
2021/12/01 11:59:51;;;;;;;;;;;;;;;21.55;47.81;99377.78;20462807;28;97866;-59
2021/12/01 12:10:12;;;;;;;;;;;;;;;21.54;47.68;99352.41;20464107;28;98312;-58
2021/12/01 12:20:29;;;;;;;;;;;;;;;21.56;48.06;99332.03;20488958;28;101122;-59
2021/12/01 12:30:32;;;;;;;;;;;;;;;21.59;48.17;99314.16;20550219;28;97290;-57
2021/12/01 12:40:33;;;;;;;;;;;;;;;21.69;49.43;99313.25;20549348;27;100580;-58
2021/12/01 12:50:33;;;;;;;;;;;;;;;21.80;52.30;99315.69;20472482;28;100995;-59
2021/12/01 13:00:52;;;;;;;;;;;;;;;21.87;52.87;99298.31;20471688;28;99430;-58
2021/12/01 13:10:53;;;;;;;;;;;;;;;21.95;54.58;99279.09;20547989;28;99073;-58
2021/12/01 13:21:01;;;;;;;;;;;;;;;21.80;52.19;99284.06;20555338;28;98029;-58
2021/12/01 13:31:04;;;;;;;;;;;;;;;21.31;47.04;99279.03;20540639;28;100432;-60
2021/12/01 13:41:09;;;;;;;;;;;;;;;21.02;41.65;99273.91;20548626;28;98012;-58
2021/12/01 13:51:11;;;;;;;;;;;;;;;21.32;46.42;99267.53;20523850;28;102778;-59
2021/12/01 14:01:16;;;;;;;;;;;;;;;21.37;46.55;99264.47;20496621;28;99818;-59
2021/12/01 14:11:24;;;;;;;;;;;;;;;21.42;47.19;99262.22;20536940;28;99754;-59
2021/12/01 14:21:26;;;;;;;;;;;;;;;21.40;47.36;99248.41;20545389;28;102260;-59
2021/12/01 14:31:26;;;;;;;;;;;;;;;21.41;47.73;99235.06;20554910;28;99277;-60
2021/12/01 14:41:31;;;;;;;;;;;;;;;21.42;47.50;99217.44;20529324;28;101729;-59
2021/12/01 14:51:35;;;;;;;;;;;;;;;21.41;47.62;99221.91;20544005;28;100005;-59
2021/12/01 15:01:38;;;;;;;;;;;;;;;21.37;47.90;99215.28;20549199;28;98411;-59
2021/12/01 15:11:42;;;;;;;;;;;;;;;21.39;47.61;99209.88;20544649;28;100868;-59
2021/12/01 15:21:45;;;;;;;;;;;;;;;21.35;47.80;99198.81;20551682;28;99316;-59
2021/12/01 15:32:06;;;;;;;;;;;;;;;21.36;47.97;99184.66;20549253;28;97980;-59
2021/12/01 15:42:07;;;;;;;;;;;;;;;21.39;48.13;99162.47;20551846;28;97951;-59
2021/12/01 15:52:07;;;;;;;;;;;;;;;21.38;48.11;99152.91;20483685;28;97684;-59
2021/12/01 16:02:07;;;;;;;;;;;;;;;21.39;48.54;99144.03;20486507;28;98295;-59
2021/12/01 16:12:08;;;;;;;;;;;;;;;21.40;48.23;99129.91;20474824;28;97513;-59
2021/12/01 16:22:08;;;;;;;;;;;;;;;21.36;48.61;99124.09;20561970;28;97096;-59
2021/12/01 16:32:09;;;;;;;;;;;;;;;21.32;47.65;99112.19;20559780;28;97866;-58
2021/12/01 16:42:10;;;;;;;;;;;;;;;21.35;48.51;99111.91;20548282;28;102416;-59
2021/12/01 16:52:11;;;;;;;;;;;;;;;21.28;47.73;99101.13;20551159;28;97921;-59
2021/12/01 17:02:13;;;;;;;;;;;;;;;21.27;47.60;99096.84;20548436;28;98190;-58
2021/12/01 17:12:17;;;;;;;;;;;;;;;21.30;48.11;99079.94;20540287;28;99779;-57
2021/12/01 17:22:17;;;;;;;;;;;;;;;21.39;47.71;99065.03;20530705;28;103002;-57
2021/12/01 17:32:18;;;;;;;;;;;;;;;21.51;49.49;99065.63;20521840;27;99760;-61
2021/12/01 17:42:23;;;;;;;;;;;;;;;21.50;49.43;99051.63;20531048;28;99162;-60
2021/12/01 17:52:25;;;;;;;;;;;;;;;21.49;49.53;99043.88;20526127;28;101330;-58
2021/12/01 18:02:28;;;;;;;;;;;;;;;21.51;49.81;99048.00;20531015;28;99608;-60
2021/12/01 18:12:29;;;;;;;;;;;;;;;21.50;50.01;99045.53;20543711;28;98069;-58
2021/12/01 18:22:29;;;;;;;;;;;;;;;21.50;50.50;99035.81;20551781;28;98760;-58
2021/12/01 18:32:30;;;;;;;;;;;;;;;21.51;50.64;99028.75;20550502;28;98654;-59
2021/12/01 18:42:30;;;;;;;;;;;;;;;21.49;50.81;99028.09;20550202;28;98607;-58
2021/12/01 18:52:31;;;;;;;;;;;;;;;21.48;50.99;99021.97;20543145;28;97677;-58
2021/12/01 19:02:32;;;;;;;;;;;;;;;21.47;50.86;99008.97;20538366;28;100812;-58
2021/12/01 19:12:33;;;;;;;;;;;;;;;21.51;50.74;98995.34;20465983;28;98956;-58
2021/12/01 19:22:33;;;;;;;;;;;;;;;21.48;50.94;98994.81;20459741;28;103338;-57
2021/12/01 19:32:34;;;;;;;;;;;;;;;21.54;52.16;98989.75;20475331;28;101182;-58
2021/12/01 19:42:35;;;;;;;;;;;;;;;21.50;51.29;98983.16;20486210;28;98853;-56
2021/12/01 19:52:35;;;;;;;;;;;;;;;21.48;50.72;98968.47;20479005;28;98042;-57
2021/12/01 20:02:37;;;;;;;;;;;;;;;21.46;50.62;98950.22;20545905;28;101706;-57
2021/12/01 20:12:43;;;;;;;;;;;;;;;21.52;50.58;98952.22;20516885;28;99022;-58
2021/12/01 20:22:48;;;;;;;;;;;;;;;21.47;50.38;98951.88;20537655;28;100638;-58
2021/12/01 20:32:51;;;;;;;;;;;;;;;21.27;48.51;98944.16;20535187;28;99822;-58
2021/12/01 20:42:51;;;;;;;;;;;;;;;21.24;49.26;98923.41;20518366;28;99020;-58
2021/12/01 21:03:16;;;;;;;;;;;;;;;21.25;49.09;98921.59;20553575;28;97645;-56
2021/12/01 21:13:17;;;;;;;;;;;;;;;21.23;49.39;98921.75;20555929;28;98848;-56
2021/12/01 21:23:20;;;;;;;;;;;;;;;21.21;49.58;98917.63;20536610;28;102186;-56
2021/12/01 21:33:20;;;;;;;;;;;;;;;21.19;50.08;98920.44;20551256;28;101891;-59
2021/12/01 21:43:21;;;;;;;;;;;;;;;21.18;49.67;98921.41;20544136;28;99172;-56
2021/12/01 21:53:22;;;;;;;;;;;;;;;21.18;49.81;98926.66;20542283;28;101539;-58
2021/12/01 22:03:23;;;;;;;;;;;;;;;21.16;50.39;98907.56;20540614;28;98825;-58
2021/12/01 22:13:24;;;;;;;;;;;;;;;21.13;50.10;98902.63;20549100;28;102446;-58
2021/12/01 22:23:29;;;;;;;;;;;;;;;21.12;49.80;98895.69;20541354;28;98376;-58
2021/12/01 22:33:30;;;;;;;;;;;;;;;21.10;50.33;98881.88;20538663;28;105855;-57
2021/12/01 22:43:33;;;;;;;;;;;;;;;21.05;50.12;98868.34;20545968;28;98125;-57
2021/12/01 22:53:33;;;;;;;;;;;;;;;21.05;50.19;98860.47;20535118;28;100106;-59
2021/12/01 23:03:37;;;;;;;;;;;;;;;21.10;51.13;98845.00;20501246;28;100516;-58
2021/12/01 23:13:37;;;;;;;;;;;;;;;21.09;51.47;98835.47;20530601;28;100943;-57
2021/12/01 23:33:40;;;;;;;;;;;;;;;21.00;51.35;98831.97;20540443;28;99424;-57
2021/12/01 23:43:43;;;;;;;;;;;;;;;20.94;50.45;98829.97;20452318;28;100693;-58
2021/12/01 23:53:49;;;;;;;;;;;;;;;20.92;50.61;98837.16;20456562;28;102205;-58
